sensor_id;sensor_type;location;lat;lon;timestamp;P1;durP1;ratioP1;P2;durP2;ratioP2
4434;SDS011;46552;52.150;8.428;2023-07-29T00:00:57;5.70;;;2.87;;
4434;SDS011;46552;52.150;8.428;2023-07-29T00:03:27;13.70;;;3.80;;
4434;SDS011;46552;52.150;8.428;2023-07-29T00:05:55;7.50;;;3.67;;
4434;SDS011;46552;52.150;8.428;2023-07-29T00:08:23;7.50;;;3.20;;
4434;SDS011;46552;52.150;8.428;2023-07-29T00:10:51;5.20;;;3.17;;
4434;SDS011;46552;52.150;8.428;2023-07-29T00:13:17;5.57;;;3.63;;
4434;SDS011;46552;52.150;8.428;2023-07-29T00:15:45;9.93;;;3.87;;
4434;SDS011;46552;52.150;8.428;2023-07-29T00:18:14;5.90;;;4.07;;
4434;SDS011;46552;52.150;8.428;2023-07-29T00:20:44;4.90;;;3.37;;
4434;SDS011;46552;52.150;8.428;2023-07-29T00:23:11;6.10;;;3.37;;
4434;SDS011;46552;52.150;8.428;2023-07-29T00:25:38;5.37;;;3.07;;
4434;SDS011;46552;52.150;8.428;2023-07-29T00:28:05;6.00;;;3.20;;
4434;SDS011;46552;52.150;8.428;2023-07-29T00:30:32;4.90;;;3.50;;
4434;SDS011;46552;52.150;8.428;2023-07-29T00:33:00;5.80;;;3.70;;
4434;SDS011;46552;52.150;8.428;2023-07-29T00:35:27;6.50;;;4.20;;
4434;SDS011;46552;52.150;8.428;2023-07-29T00:37:56;7.33;;;3.57;;
4434;SDS011;46552;52.150;8.428;2023-07-29T00:40:23;6.00;;;3.87;;
4434;SDS011;46552;52.150;8.428;2023-07-29T00:42:50;6.60;;;3.83;;
4434;SDS011;46552;52.150;8.428;2023-07-29T00:45:18;6.60;;;3.70;;
4434;SDS011;46552;52.150;8.428;2023-07-29T00:47:46;7.87;;;3.57;;
4434;SDS011;46552;52.150;8.428;2023-07-29T00:50:14;9.40;;;3.73;;
4434;SDS011;46552;52.150;8.428;2023-07-29T00:52:42;10.23;;;4.17;;
4434;SDS011;46552;52.150;8.428;2023-07-29T00:55:11;5.20;;;3.67;;
4434;SDS011;46552;52.150;8.428;2023-07-29T00:57:39;9.97;;;3.90;;
4434;SDS011;46552;52.150;8.428;2023-07-29T01:00:07;8.13;;;3.73;;
4434;SDS011;46552;52.150;8.428;2023-07-29T01:02:35;5.73;;;3.90;;
4434;SDS011;46552;52.150;8.428;2023-07-29T01:05:03;6.80;;;2.90;;
4434;SDS011;46552;52.150;8.428;2023-07-29T01:07:32;6.60;;;3.80;;
4434;SDS011;46552;52.150;8.428;2023-07-29T01:10:05;7.83;;;4.00;;
4434;SDS011;46552;52.150;8.428;2023-07-29T01:12:41;5.27;;;3.60;;
4434;SDS011;46552;52.150;8.428;2023-07-29T01:15:16;5.90;;;3.37;;
4434;SDS011;46552;52.150;8.428;2023-07-29T01:17:47;6.30;;;3.07;;
4434;SDS011;46552;52.150;8.428;2023-07-29T01:20:19;10.63;;;3.63;;
4434;SDS011;46552;52.150;8.428;2023-07-29T01:22:48;5.83;;;3.20;;
4434;SDS011;46552;52.150;8.428;2023-07-29T01:25:19;6.90;;;3.67;;
4434;SDS011;46552;52.150;8.428;2023-07-29T01:27:48;8.13;;;3.33;;
4434;SDS011;46552;52.150;8.428;2023-07-29T01:30:17;6.07;;;3.60;;
4434;SDS011;46552;52.150;8.428;2023-07-29T01:32:48;6.77;;;4.00;;
4434;SDS011;46552;52.150;8.428;2023-07-29T01:35:23;6.30;;;4.30;;
4434;SDS011;46552;52.150;8.428;2023-07-29T01:37:54;7.13;;;4.60;;
4434;SDS011;46552;52.150;8.428;2023-07-29T01:40:27;6.60;;;4.30;;
4434;SDS011;46552;52.150;8.428;2023-07-29T01:42:56;5.03;;;3.80;;
4434;SDS011;46552;52.150;8.428;2023-07-29T01:45:23;5.07;;;3.63;;
4434;SDS011;46552;52.150;8.428;2023-07-29T01:47:52;6.27;;;4.23;;
4434;SDS011;46552;52.150;8.428;2023-07-29T01:50:19;7.63;;;3.97;;
4434;SDS011;46552;52.150;8.428;2023-07-29T01:52:47;5.27;;;3.30;;
4434;SDS011;46552;52.150;8.428;2023-07-29T01:55:15;6.50;;;3.13;;
4434;SDS011;46552;52.150;8.428;2023-07-29T01:57:44;6.60;;;3.53;;
4434;SDS011;46552;52.150;8.428;2023-07-29T02:00:11;6.50;;;3.60;;
4434;SDS011;46552;52.150;8.428;2023-07-29T02:02:39;7.03;;;3.70;;
4434;SDS011;46552;52.150;8.428;2023-07-29T02:05:06;6.17;;;3.60;;
4434;SDS011;46552;52.150;8.428;2023-07-29T02:07:34;7.00;;;4.03;;
4434;SDS011;46552;52.150;8.428;2023-07-29T02:10:01;7.30;;;4.90;;
4434;SDS011;46552;52.150;8.428;2023-07-29T02:12:28;7.93;;;3.80;;
4434;SDS011;46552;52.150;8.428;2023-07-29T02:14:57;8.30;;;4.37;;
4434;SDS011;46552;52.150;8.428;2023-07-29T02:17:24;8.87;;;4.90;;
4434;SDS011;46552;52.150;8.428;2023-07-29T02:19:52;6.83;;;4.80;;
4434;SDS011;46552;52.150;8.428;2023-07-29T02:22:19;6.33;;;4.83;;
4434;SDS011;46552;52.150;8.428;2023-07-29T02:24:46;5.97;;;3.90;;
4434;SDS011;46552;52.150;8.428;2023-07-29T02:27:13;7.40;;;4.50;;
4434;SDS011;46552;52.150;8.428;2023-07-29T02:29:41;11.50;;;4.80;;
4434;SDS011;46552;52.150;8.428;2023-07-29T02:32:09;7.67;;;4.27;;
4434;SDS011;46552;52.150;8.428;2023-07-29T02:34:36;5.63;;;3.97;;
4434;SDS011;46552;52.150;8.428;2023-07-29T02:37:06;6.83;;;4.17;;
4434;SDS011;46552;52.150;8.428;2023-07-29T02:39:33;5.93;;;4.53;;
4434;SDS011;46552;52.150;8.428;2023-07-29T02:42:00;8.40;;;5.67;;
4434;SDS011;46552;52.150;8.428;2023-07-29T02:44:27;9.80;;;5.60;;
4434;SDS011;46552;52.150;8.428;2023-07-29T02:46:55;10.57;;;6.10;;
4434;SDS011;46552;52.150;8.428;2023-07-29T02:49:25;8.77;;;6.60;;
4434;SDS011;46552;52.150;8.428;2023-07-29T02:51:52;11.70;;;6.90;;
4434;SDS011;46552;52.150;8.428;2023-07-29T02:54:20;10.50;;;6.43;;
4434;SDS011;46552;52.150;8.428;2023-07-29T02:56:47;9.97;;;5.67;;
4434;SDS011;46552;52.150;8.428;2023-07-29T02:59:16;9.30;;;6.00;;
4434;SDS011;46552;52.150;8.428;2023-07-29T03:01:43;10.53;;;6.87;;
4434;SDS011;46552;52.150;8.428;2023-07-29T03:04:10;9.63;;;6.57;;
4434;SDS011;46552;52.150;8.428;2023-07-29T03:06:39;11.40;;;6.50;;
4434;SDS011;46552;52.150;8.428;2023-07-29T03:09:08;15.33;;;6.23;;
4434;SDS011;46552;52.150;8.428;2023-07-29T03:11:35;10.30;;;7.07;;
4434;SDS011;46552;52.150;8.428;2023-07-29T03:14:03;8.70;;;5.80;;
4434;SDS011;46552;52.150;8.428;2023-07-29T03:16:31;10.60;;;6.90;;
4434;SDS011;46552;52.150;8.428;2023-07-29T03:18:58;10.50;;;6.97;;
4434;SDS011;46552;52.150;8.428;2023-07-29T03:21:25;8.20;;;5.47;;
4434;SDS011;46552;52.150;8.428;2023-07-29T03:23:56;9.00;;;6.00;;
4434;SDS011;46552;52.150;8.428;2023-07-29T03:26:24;7.70;;;5.97;;
4434;SDS011;46552;52.150;8.428;2023-07-29T03:28:52;9.63;;;6.20;;
4434;SDS011;46552;52.150;8.428;2023-07-29T03:31:19;7.53;;;5.50;;
4434;SDS011;46552;52.150;8.428;2023-07-29T03:33:46;7.70;;;6.00;;
4434;SDS011;46552;52.150;8.428;2023-07-29T03:36:13;11.43;;;5.80;;
4434;SDS011;46552;52.150;8.428;2023-07-29T03:38:40;12.20;;;6.50;;
4434;SDS011;46552;52.150;8.428;2023-07-29T03:41:11;9.13;;;5.80;;
4434;SDS011;46552;52.150;8.428;2023-07-29T03:43:38;10.60;;;6.73;;
4434;SDS011;46552;52.150;8.428;2023-07-29T03:46:06;7.67;;;5.93;;
4434;SDS011;46552;52.150;8.428;2023-07-29T03:48:33;11.73;;;6.53;;
4434;SDS011;46552;52.150;8.428;2023-07-29T03:51:01;11.70;;;6.90;;
4434;SDS011;46552;52.150;8.428;2023-07-29T03:53:28;12.57;;;7.27;;
4434;SDS011;46552;52.150;8.428;2023-07-29T03:55:55;10.97;;;6.97;;
4434;SDS011;46552;52.150;8.428;2023-07-29T03:58:24;8.13;;;5.90;;
4434;SDS011;46552;52.150;8.428;2023-07-29T04:00:51;10.40;;;7.07;;
4434;SDS011;46552;52.150;8.428;2023-07-29T04:03:18;9.77;;;6.60;;
4434;SDS011;46552;52.150;8.428;2023-07-29T04:05:46;7.13;;;5.87;;
4434;SDS011;46552;52.150;8.428;2023-07-29T04:08:14;12.50;;;7.27;;
4434;SDS011;46552;52.150;8.428;2023-07-29T04:10:42;8.63;;;5.70;;
4434;SDS011;46552;52.150;8.428;2023-07-29T04:13:09;15.67;;;5.90;;
4434;SDS011;46552;52.150;8.428;2023-07-29T04:15:38;9.77;;;5.90;;
4434;SDS011;46552;52.150;8.428;2023-07-29T04:18:05;9.43;;;5.27;;
4434;SDS011;46552;52.150;8.428;2023-07-29T04:20:33;9.10;;;6.10;;
4434;SDS011;46552;52.150;8.428;2023-07-29T04:23:01;10.43;;;6.37;;
4434;SDS011;46552;52.150;8.428;2023-07-29T04:25:28;6.93;;;5.00;;
4434;SDS011;46552;52.150;8.428;2023-07-29T04:27:56;12.13;;;6.20;;
4434;SDS011;46552;52.150;8.428;2023-07-29T04:30:23;9.97;;;6.47;;
4434;SDS011;46552;52.150;8.428;2023-07-29T04:32:52;6.80;;;5.20;;
4434;SDS011;46552;52.150;8.428;2023-07-29T04:35:19;10.40;;;5.47;;
4434;SDS011;46552;52.150;8.428;2023-07-29T04:37:46;7.67;;;5.63;;
4434;SDS011;46552;52.150;8.428;2023-07-29T04:40:14;7.63;;;5.40;;
4434;SDS011;46552;52.150;8.428;2023-07-29T04:42:41;6.77;;;5.53;;
4434;SDS011;46552;52.150;8.428;2023-07-29T04:45:09;6.90;;;5.40;;
4434;SDS011;46552;52.150;8.428;2023-07-29T04:47:36;8.10;;;4.30;;
4434;SDS011;46552;52.150;8.428;2023-07-29T04:50:05;8.20;;;5.43;;
4434;SDS011;46552;52.150;8.428;2023-07-29T04:52:33;6.10;;;4.10;;
4434;SDS011;46552;52.150;8.428;2023-07-29T04:55:00;8.87;;;4.87;;
4434;SDS011;46552;52.150;8.428;2023-07-29T04:57:28;6.70;;;4.43;;
4434;SDS011;46552;52.150;8.428;2023-07-29T04:59:55;5.90;;;4.10;;
4434;SDS011;46552;52.150;8.428;2023-07-29T05:02:22;6.47;;;4.67;;
4434;SDS011;46552;52.150;8.428;2023-07-29T05:04:49;6.10;;;4.50;;
4434;SDS011;46552;52.150;8.428;2023-07-29T05:07:18;7.80;;;4.80;;
4434;SDS011;46552;52.150;8.428;2023-07-29T05:09:45;9.30;;;5.40;;
4434;SDS011;46552;52.150;8.428;2023-07-29T05:12:12;7.23;;;4.93;;
4434;SDS011;46552;52.150;8.428;2023-07-29T05:14:39;11.20;;;5.40;;
4434;SDS011;46552;52.150;8.428;2023-07-29T05:17:06;6.20;;;4.57;;
4434;SDS011;46552;52.150;8.428;2023-07-29T05:19:33;9.93;;;5.57;;
4434;SDS011;46552;52.150;8.428;2023-07-29T05:22:00;9.40;;;4.70;;
4434;SDS011;46552;52.150;8.428;2023-07-29T05:24:29;5.93;;;4.50;;
4434;SDS011;46552;52.150;8.428;2023-07-29T05:26:56;8.80;;;5.87;;
4434;SDS011;46552;52.150;8.428;2023-07-29T05:29:23;6.53;;;4.70;;
4434;SDS011;46552;52.150;8.428;2023-07-29T05:31:50;8.13;;;5.07;;
4434;SDS011;46552;52.150;8.428;2023-07-29T05:34:17;6.63;;;5.17;;
4434;SDS011;46552;52.150;8.428;2023-07-29T05:36:44;6.80;;;5.07;;
4434;SDS011;46552;52.150;8.428;2023-07-29T05:39:12;6.23;;;4.70;;
4434;SDS011;46552;52.150;8.428;2023-07-29T05:41:40;12.03;;;5.13;;
4434;SDS011;46552;52.150;8.428;2023-07-29T05:44:08;11.87;;;6.60;;
4434;SDS011;46552;52.150;8.428;2023-07-29T05:46:35;9.00;;;6.07;;
4434;SDS011;46552;52.150;8.428;2023-07-29T05:49:02;9.53;;;6.90;;
4434;SDS011;46552;52.150;8.428;2023-07-29T05:51:29;10.60;;;5.93;;
4434;SDS011;46552;52.150;8.428;2023-07-29T05:53:56;8.87;;;6.53;;
4434;SDS011;46552;52.150;8.428;2023-07-29T05:56:24;10.13;;;7.07;;
4434;SDS011;46552;52.150;8.428;2023-07-29T05:58:52;10.13;;;7.30;;
4434;SDS011;46552;52.150;8.428;2023-07-29T06:01:20;13.27;;;9.27;;
4434;SDS011;46552;52.150;8.428;2023-07-29T06:03:47;11.00;;;8.20;;
4434;SDS011;46552;52.150;8.428;2023-07-29T06:06:15;10.97;;;9.40;;
4434;SDS011;46552;52.150;8.428;2023-07-29T06:08:42;14.10;;;10.10;;
4434;SDS011;46552;52.150;8.428;2023-07-29T06:11:10;17.47;;;10.20;;
4434;SDS011;46552;52.150;8.428;2023-07-29T06:13:37;18.67;;;9.37;;
4434;SDS011;46552;52.150;8.428;2023-07-29T06:16:06;20.17;;;14.40;;
4434;SDS011;46552;52.150;8.428;2023-07-29T06:18:33;21.03;;;12.80;;
4434;SDS011;46552;52.150;8.428;2023-07-29T06:21:00;20.60;;;13.60;;
4434;SDS011;46552;52.150;8.428;2023-07-29T06:23:32;15.90;;;12.17;;
4434;SDS011;46552;52.150;8.428;2023-07-29T06:26:00;17.53;;;12.80;;
4434;SDS011;46552;52.150;8.428;2023-07-29T06:28:27;19.50;;;14.00;;
4434;SDS011;46552;52.150;8.428;2023-07-29T06:30:54;17.90;;;13.40;;
4434;SDS011;46552;52.150;8.428;2023-07-29T06:33:23;19.63;;;14.40;;
4434;SDS011;46552;52.150;8.428;2023-07-29T06:35:51;26.83;;;16.40;;
4434;SDS011;46552;52.150;8.428;2023-07-29T06:38:18;20.63;;;13.60;;
4434;SDS011;46552;52.150;8.428;2023-07-29T06:40:47;20.13;;;16.07;;
4434;SDS011;46552;52.150;8.428;2023-07-29T06:43:14;22.30;;;14.73;;
4434;SDS011;46552;52.150;8.428;2023-07-29T06:45:41;19.07;;;15.37;;
4434;SDS011;46552;52.150;8.428;2023-07-29T06:48:09;24.23;;;17.30;;
4434;SDS011;46552;52.150;8.428;2023-07-29T06:50:38;25.33;;;18.70;;
4434;SDS011;46552;52.150;8.428;2023-07-29T06:53:05;26.03;;;16.03;;
4434;SDS011;46552;52.150;8.428;2023-07-29T06:55:33;25.50;;;18.20;;
4434;SDS011;46552;52.150;8.428;2023-07-29T06:58:00;24.73;;;18.30;;
4434;SDS011;46552;52.150;8.428;2023-07-29T07:00:28;25.60;;;18.73;;
4434;SDS011;46552;52.150;8.428;2023-07-29T07:02:55;22.43;;;17.00;;
4434;SDS011;46552;52.150;8.428;2023-07-29T07:05:23;25.50;;;15.13;;
4434;SDS011;46552;52.150;8.428;2023-07-29T07:07:51;23.33;;;15.67;;
4434;SDS011;46552;52.150;8.428;2023-07-29T07:10:18;19.00;;;14.20;;
4434;SDS011;46552;52.150;8.428;2023-07-29T07:12:46;20.20;;;14.00;;
4434;SDS011;46552;52.150;8.428;2023-07-29T07:15:14;21.17;;;13.30;;
4434;SDS011;46552;52.150;8.428;2023-07-29T07:17:42;21.50;;;14.70;;
4434;SDS011;46552;52.150;8.428;2023-07-29T07:20:10;19.80;;;13.73;;
4434;SDS011;46552;52.150;8.428;2023-07-29T07:22:38;17.00;;;12.43;;
4434;SDS011;46552;52.150;8.428;2023-07-29T07:25:07;23.70;;;13.53;;
4434;SDS011;46552;52.150;8.428;2023-07-29T07:27:35;25.13;;;13.63;;
4434;SDS011;46552;52.150;8.428;2023-07-29T07:30:02;25.17;;;14.67;;
4434;SDS011;46552;52.150;8.428;2023-07-29T07:32:30;18.17;;;12.13;;
4434;SDS011;46552;52.150;8.428;2023-07-29T07:34:58;19.60;;;14.93;;
4434;SDS011;46552;52.150;8.428;2023-07-29T07:37:26;23.53;;;11.60;;
4434;SDS011;46552;52.150;8.428;2023-07-29T07:39:53;18.07;;;13.70;;
4434;SDS011;46552;52.150;8.428;2023-07-29T07:42:21;16.80;;;12.23;;
4434;SDS011;46552;52.150;8.428;2023-07-29T07:44:49;14.50;;;11.87;;
4434;SDS011;46552;52.150;8.428;2023-07-29T07:47:17;14.70;;;11.07;;
4434;SDS011;46552;52.150;8.428;2023-07-29T07:49:44;15.30;;;11.30;;
4434;SDS011;46552;52.150;8.428;2023-07-29T07:52:14;13.20;;;10.30;;
4434;SDS011;46552;52.150;8.428;2023-07-29T07:54:41;13.73;;;8.53;;
4434;SDS011;46552;52.150;8.428;2023-07-29T07:57:08;11.23;;;6.57;;
4434;SDS011;46552;52.150;8.428;2023-07-29T07:59:37;14.17;;;8.23;;
4434;SDS011;46552;52.150;8.428;2023-07-29T08:02:05;12.10;;;7.67;;
4434;SDS011;46552;52.150;8.428;2023-07-29T08:04:34;13.50;;;6.83;;
4434;SDS011;46552;52.150;8.428;2023-07-29T08:07:02;9.03;;;6.77;;
4434;SDS011;46552;52.150;8.428;2023-07-29T08:09:29;7.57;;;4.70;;
4434;SDS011;46552;52.150;8.428;2023-07-29T08:11:56;9.73;;;4.27;;
4434;SDS011;46552;52.150;8.428;2023-07-29T08:14:23;6.17;;;4.17;;
4434;SDS011;46552;52.150;8.428;2023-07-29T08:16:53;5.77;;;4.20;;
4434;SDS011;46552;52.150;8.428;2023-07-29T08:19:20;6.37;;;4.27;;
4434;SDS011;46552;52.150;8.428;2023-07-29T08:21:47;8.33;;;5.03;;
4434;SDS011;46552;52.150;8.428;2023-07-29T08:24:14;10.03;;;4.33;;
4434;SDS011;46552;52.150;8.428;2023-07-29T08:26:41;7.60;;;3.20;;
4434;SDS011;46552;52.150;8.428;2023-07-29T08:29:09;5.47;;;3.33;;
4434;SDS011;46552;52.150;8.428;2023-07-29T08:31:37;6.87;;;3.90;;
4434;SDS011;46552;52.150;8.428;2023-07-29T08:34:06;3.47;;;3.03;;
4434;SDS011;46552;52.150;8.428;2023-07-29T08:36:33;5.17;;;2.80;;
4434;SDS011;46552;52.150;8.428;2023-07-29T08:39:02;4.63;;;2.90;;
4434;SDS011;46552;52.150;8.428;2023-07-29T08:41:29;4.50;;;3.00;;
4434;SDS011;46552;52.150;8.428;2023-07-29T08:44:04;4.03;;;2.60;;
4434;SDS011;46552;52.150;8.428;2023-07-29T08:46:35;4.30;;;2.17;;
4434;SDS011;46552;52.150;8.428;2023-07-29T08:49:06;4.30;;;2.07;;
4434;SDS011;46552;52.150;8.428;2023-07-29T08:51:34;4.07;;;2.33;;
4434;SDS011;46552;52.150;8.428;2023-07-29T08:54:02;6.10;;;2.27;;
4434;SDS011;46552;52.150;8.428;2023-07-29T08:56:30;2.63;;;1.70;;
4434;SDS011;46552;52.150;8.428;2023-07-29T08:58:57;2.87;;;1.37;;
4434;SDS011;46552;52.150;8.428;2023-07-29T09:01:27;3.27;;;1.90;;
4434;SDS011;46552;52.150;8.428;2023-07-29T09:03:55;4.20;;;1.63;;
4434;SDS011;46552;52.150;8.428;2023-07-29T09:06:24;2.50;;;1.30;;
4434;SDS011;46552;52.150;8.428;2023-07-29T09:08:52;3.30;;;1.50;;
4434;SDS011;46552;52.150;8.428;2023-07-29T09:11:21;3.97;;;1.43;;
4434;SDS011;46552;52.150;8.428;2023-07-29T09:13:49;2.50;;;1.17;;
4434;SDS011;46552;52.150;8.428;2023-07-29T09:16:16;3.40;;;1.57;;
4434;SDS011;46552;52.150;8.428;2023-07-29T09:18:43;4.50;;;1.40;;
4434;SDS011;46552;52.150;8.428;2023-07-29T09:21:15;4.10;;;1.70;;
4434;SDS011;46552;52.150;8.428;2023-07-29T09:23:44;4.67;;;1.57;;
4434;SDS011;46552;52.150;8.428;2023-07-29T09:26:11;2.40;;;1.23;;
4434;SDS011;46552;52.150;8.428;2023-07-29T09:28:40;2.70;;;1.20;;
4434;SDS011;46552;52.150;8.428;2023-07-29T09:31:09;4.70;;;1.30;;
4434;SDS011;46552;52.150;8.428;2023-07-29T09:33:47;2.20;;;1.03;;
4434;SDS011;46552;52.150;8.428;2023-07-29T09:36:16;1.97;;;0.87;;
4434;SDS011;46552;52.150;8.428;2023-07-29T09:38:45;3.23;;;1.20;;
4434;SDS011;46552;52.150;8.428;2023-07-29T09:41:12;2.27;;;1.10;;
4434;SDS011;46552;52.150;8.428;2023-07-29T09:43:40;2.60;;;1.20;;
4434;SDS011;46552;52.150;8.428;2023-07-29T09:46:07;2.27;;;1.10;;
4434;SDS011;46552;52.150;8.428;2023-07-29T09:48:37;1.97;;;1.10;;
4434;SDS011;46552;52.150;8.428;2023-07-29T09:51:12;4.10;;;1.50;;
4434;SDS011;46552;52.150;8.428;2023-07-29T09:53:41;2.80;;;1.30;;
4434;SDS011;46552;52.150;8.428;2023-07-29T09:56:10;2.60;;;1.10;;
4434;SDS011;46552;52.150;8.428;2023-07-29T09:58:40;3.20;;;1.33;;
4434;SDS011;46552;52.150;8.428;2023-07-29T10:01:10;2.03;;;1.10;;
4434;SDS011;46552;52.150;8.428;2023-07-29T10:03:37;3.23;;;1.20;;
4434;SDS011;46552;52.150;8.428;2023-07-29T10:06:06;1.77;;;0.73;;
4434;SDS011;46552;52.150;8.428;2023-07-29T10:08:33;2.90;;;1.40;;
4434;SDS011;46552;52.150;8.428;2023-07-29T10:11:03;1.67;;;0.80;;
4434;SDS011;46552;52.150;8.428;2023-07-29T10:13:36;3.80;;;1.47;;
4434;SDS011;46552;52.150;8.428;2023-07-29T10:16:05;2.60;;;1.10;;
4434;SDS011;46552;52.150;8.428;2023-07-29T10:18:32;1.70;;;0.83;;
4434;SDS011;46552;52.150;8.428;2023-07-29T10:21:00;2.53;;;0.80;;
4434;SDS011;46552;52.150;8.428;2023-07-29T10:23:32;2.80;;;1.10;;
4434;SDS011;46552;52.150;8.428;2023-07-29T10:26:04;2.90;;;1.37;;
4434;SDS011;46552;52.150;8.428;2023-07-29T10:28:38;2.07;;;1.07;;
4434;SDS011;46552;52.150;8.428;2023-07-29T10:31:08;2.40;;;1.40;;
4434;SDS011;46552;52.150;8.428;2023-07-29T10:33:36;2.27;;;1.13;;
4434;SDS011;46552;52.150;8.428;2023-07-29T10:36:04;2.70;;;1.00;;
4434;SDS011;46552;52.150;8.428;2023-07-29T10:38:32;2.07;;;1.00;;
4434;SDS011;46552;52.150;8.428;2023-07-29T10:41:00;2.10;;;1.00;;
4434;SDS011;46552;52.150;8.428;2023-07-29T10:43:28;1.87;;;0.90;;
4434;SDS011;46552;52.150;8.428;2023-07-29T10:46:14;2.20;;;0.90;;
4434;SDS011;46552;52.150;8.428;2023-07-29T10:48:43;2.50;;;1.00;;
4434;SDS011;46552;52.150;8.428;2023-07-29T10:51:28;1.80;;;0.80;;
4434;SDS011;46552;52.150;8.428;2023-07-29T10:53:58;2.93;;;1.20;;
4434;SDS011;46552;52.150;8.428;2023-07-29T10:56:28;1.90;;;0.80;;
4434;SDS011;46552;52.150;8.428;2023-07-29T10:58:56;4.70;;;2.33;;
4434;SDS011;46552;52.150;8.428;2023-07-29T11:01:30;1.60;;;0.60;;
4434;SDS011;46552;52.150;8.428;2023-07-29T11:09:57;5.40;;;1.20;;
4434;SDS011;46552;52.150;8.428;2023-07-29T11:12:36;1.60;;;0.73;;
4434;SDS011;46552;52.150;8.428;2023-07-29T11:15:11;1.50;;;0.50;;
4434;SDS011;46552;52.150;8.428;2023-07-29T11:17:45;3.80;;;0.90;;
4434;SDS011;46552;52.150;8.428;2023-07-29T11:20:14;2.00;;;0.70;;
4434;SDS011;46552;52.150;8.428;2023-07-29T11:22:42;2.80;;;0.93;;
4434;SDS011;46552;52.150;8.428;2023-07-29T11:25:10;2.03;;;1.00;;
4434;SDS011;46552;52.150;8.428;2023-07-29T11:27:39;4.90;;;0.83;;
4434;SDS011;46552;52.150;8.428;2023-07-29T11:30:08;2.50;;;1.00;;
4434;SDS011;46552;52.150;8.428;2023-07-29T11:32:38;2.60;;;1.07;;
4434;SDS011;46552;52.150;8.428;2023-07-29T11:35:08;1.77;;;0.70;;
4434;SDS011;46552;52.150;8.428;2023-07-29T11:37:38;3.83;;;1.00;;
4434;SDS011;46552;52.150;8.428;2023-07-29T11:40:06;1.83;;;0.80;;
4434;SDS011;46552;52.150;8.428;2023-07-29T11:42:35;2.17;;;0.90;;
4434;SDS011;46552;52.150;8.428;2023-07-29T11:45:04;2.43;;;1.23;;
4434;SDS011;46552;52.150;8.428;2023-07-29T11:47:33;6.00;;;1.60;;
4434;SDS011;46552;52.150;8.428;2023-07-29T11:50:02;2.93;;;0.97;;
4434;SDS011;46552;52.150;8.428;2023-07-29T11:52:32;1.80;;;0.80;;
4434;SDS011;46552;52.150;8.428;2023-07-29T11:55:01;1.97;;;0.93;;
4434;SDS011;46552;52.150;8.428;2023-07-29T11:57:30;2.43;;;0.97;;
4434;SDS011;46552;52.150;8.428;2023-07-29T11:59:57;2.20;;;1.27;;
4434;SDS011;46552;52.150;8.428;2023-07-29T12:02:25;1.87;;;0.97;;
4434;SDS011;46552;52.150;8.428;2023-07-29T12:04:52;1.70;;;1.03;;
4434;SDS011;46552;52.150;8.428;2023-07-29T12:07:21;2.93;;;0.97;;
4434;SDS011;46552;52.150;8.428;2023-07-29T12:09:50;2.57;;;1.23;;
4434;SDS011;46552;52.150;8.428;2023-07-29T12:12:19;6.13;;;1.00;;
4434;SDS011;46552;52.150;8.428;2023-07-29T12:14:49;4.53;;;1.70;;
4434;SDS011;46552;52.150;8.428;2023-07-29T12:17:16;3.90;;;1.47;;
4434;SDS011;46552;52.150;8.428;2023-07-29T12:19:44;2.80;;;1.53;;
4434;SDS011;46552;52.150;8.428;2023-07-29T12:22:11;2.60;;;1.20;;
4434;SDS011;46552;52.150;8.428;2023-07-29T12:24:43;3.87;;;1.40;;
4434;SDS011;46552;52.150;8.428;2023-07-29T12:27:14;2.53;;;1.37;;
4434;SDS011;46552;52.150;8.428;2023-07-29T12:29:42;3.90;;;1.33;;
4434;SDS011;46552;52.150;8.428;2023-07-29T12:32:11;2.17;;;0.80;;
4434;SDS011;46552;52.150;8.428;2023-07-29T12:34:39;5.63;;;1.10;;
4434;SDS011;46552;52.150;8.428;2023-07-29T12:37:07;2.73;;;1.17;;
4434;SDS011;46552;52.150;8.428;2023-07-29T12:39:35;2.43;;;1.40;;
4434;SDS011;46552;52.150;8.428;2023-07-29T12:42:06;3.40;;;1.37;;
4434;SDS011;46552;52.150;8.428;2023-07-29T12:44:35;3.27;;;1.23;;
4434;SDS011;46552;52.150;8.428;2023-07-29T12:47:04;2.50;;;1.30;;
4434;SDS011;46552;52.150;8.428;2023-07-29T12:49:33;2.90;;;1.40;;
4434;SDS011;46552;52.150;8.428;2023-07-29T12:52:01;2.30;;;0.93;;
4434;SDS011;46552;52.150;8.428;2023-07-29T12:54:28;2.33;;;1.10;;
4434;SDS011;46552;52.150;8.428;2023-07-29T12:56:55;5.00;;;1.63;;
4434;SDS011;46552;52.150;8.428;2023-07-29T12:59:22;2.87;;;1.13;;
4434;SDS011;46552;52.150;8.428;2023-07-29T13:01:51;6.03;;;1.63;;
4434;SDS011;46552;52.150;8.428;2023-07-29T13:04:19;3.80;;;1.40;;
4434;SDS011;46552;52.150;8.428;2023-07-29T13:06:46;6.87;;;1.83;;
4434;SDS011;46552;52.150;8.428;2023-07-29T13:09:13;2.03;;;0.97;;
4434;SDS011;46552;52.150;8.428;2023-07-29T13:11:40;2.90;;;1.17;;
4434;SDS011;46552;52.150;8.428;2023-07-29T13:14:07;1.90;;;1.00;;
4434;SDS011;46552;52.150;8.428;2023-07-29T13:16:34;2.57;;;1.23;;
4434;SDS011;46552;52.150;8.428;2023-07-29T13:19:03;5.40;;;1.33;;
4434;SDS011;46552;52.150;8.428;2023-07-29T13:21:31;2.73;;;1.40;;
4434;SDS011;46552;52.150;8.428;2023-07-29T13:23:58;4.43;;;1.70;;
4434;SDS011;46552;52.150;8.428;2023-07-29T13:26:25;2.33;;;1.10;;
4434;SDS011;46552;52.150;8.428;2023-07-29T13:28:52;2.40;;;1.30;;
4434;SDS011;46552;52.150;8.428;2023-07-29T13:31:20;2.47;;;1.23;;
4434;SDS011;46552;52.150;8.428;2023-07-29T13:33:48;2.40;;;1.33;;
4434;SDS011;46552;52.150;8.428;2023-07-29T13:36:16;2.40;;;1.27;;
4434;SDS011;46552;52.150;8.428;2023-07-29T13:38:43;3.63;;;1.40;;
4434;SDS011;46552;52.150;8.428;2023-07-29T13:41:11;2.70;;;1.50;;
4434;SDS011;46552;52.150;8.428;2023-07-29T13:43:38;2.20;;;1.10;;
4434;SDS011;46552;52.150;8.428;2023-07-29T13:46:05;1.90;;;1.00;;
4434;SDS011;46552;52.150;8.428;2023-07-29T13:48:32;4.60;;;1.20;;
4434;SDS011;46552;52.150;8.428;2023-07-29T13:51:00;2.37;;;1.10;;
4434;SDS011;46552;52.150;8.428;2023-07-29T13:53:29;3.83;;;1.40;;
4434;SDS011;46552;52.150;8.428;2023-07-29T13:55:56;2.93;;;1.50;;
4434;SDS011;46552;52.150;8.428;2023-07-29T13:58:23;2.87;;;1.43;;
4434;SDS011;46552;52.150;8.428;2023-07-29T14:00:51;2.97;;;1.37;;
4434;SDS011;46552;52.150;8.428;2023-07-29T14:03:18;3.00;;;1.70;;
4434;SDS011;46552;52.150;8.428;2023-07-29T14:05:45;2.20;;;1.20;;
4434;SDS011;46552;52.150;8.428;2023-07-29T14:08:12;2.20;;;1.00;;
4434;SDS011;46552;52.150;8.428;2023-07-29T14:10:41;2.50;;;1.33;;
4434;SDS011;46552;52.150;8.428;2023-07-29T14:13:08;3.37;;;1.67;;
4434;SDS011;46552;52.150;8.428;2023-07-29T14:15:35;2.83;;;1.13;;
4434;SDS011;46552;52.150;8.428;2023-07-29T14:18:03;3.07;;;1.00;;
4434;SDS011;46552;52.150;8.428;2023-07-29T14:20:31;5.30;;;1.47;;
4434;SDS011;46552;52.150;8.428;2023-07-29T14:22:58;4.30;;;1.67;;
4434;SDS011;46552;52.150;8.428;2023-07-29T14:25:26;2.30;;;1.20;;
4434;SDS011;46552;52.150;8.428;2023-07-29T14:27:56;2.90;;;1.40;;
4434;SDS011;46552;52.150;8.428;2023-07-29T14:30:23;2.47;;;1.27;;
4434;SDS011;46552;52.150;8.428;2023-07-29T14:32:51;2.63;;;1.50;;
4434;SDS011;46552;52.150;8.428;2023-07-29T14:35:18;3.10;;;1.47;;
4434;SDS011;46552;52.150;8.428;2023-07-29T14:37:46;2.50;;;1.40;;
4434;SDS011;46552;52.150;8.428;2023-07-29T14:40:13;2.80;;;1.73;;
4434;SDS011;46552;52.150;8.428;2023-07-29T14:42:40;5.73;;;1.90;;
4434;SDS011;46552;52.150;8.428;2023-07-29T14:45:09;3.43;;;1.60;;
4434;SDS011;46552;52.150;8.428;2023-07-29T14:47:36;4.67;;;2.60;;
4434;SDS011;46552;52.150;8.428;2023-07-29T14:50:04;6.37;;;2.67;;
4434;SDS011;46552;52.150;8.428;2023-07-29T14:52:32;3.67;;;2.10;;
4434;SDS011;46552;52.150;8.428;2023-07-29T14:54:59;4.70;;;1.57;;
4434;SDS011;46552;52.150;8.428;2023-07-29T14:57:27;4.63;;;1.57;;
4434;SDS011;46552;52.150;8.428;2023-07-29T14:59:54;2.87;;;1.70;;
4434;SDS011;46552;52.150;8.428;2023-07-29T15:02:23;4.80;;;2.00;;
4434;SDS011;46552;52.150;8.428;2023-07-29T15:04:50;2.30;;;1.40;;
4434;SDS011;46552;52.150;8.428;2023-07-29T15:07:18;9.17;;;1.97;;
4434;SDS011;46552;52.150;8.428;2023-07-29T15:09:46;8.80;;;1.90;;